createdAt,value
2022-08-26T00:02:12.692Z,21.28
2022-08-26T00:04:40.782Z,21.22
2022-08-26T00:07:09.078Z,21.13
2022-08-26T00:09:40.197Z,21.03
2022-08-26T00:14:37.517Z,20.94
2022-08-26T00:17:08.598Z,20.94
2022-08-26T00:19:36.593Z,20.94
2022-08-26T00:22:05.073Z,20.87
2022-08-26T00:27:00.906Z,20.75
2022-08-26T00:29:29.115Z,20.70
2022-08-26T00:31:59.843Z,20.72
2022-08-26T00:36:57.554Z,20.62
2022-08-26T00:39:25.426Z,20.62
2022-08-26T00:41:53.548Z,20.58
2022-08-26T00:44:21.624Z,20.56
2022-08-26T00:46:52.202Z,20.53
2022-08-26T00:49:35.599Z,20.53
2022-08-26T00:52:09.725Z,20.51
2022-08-26T00:54:46.738Z,20.52
2022-08-26T00:59:52.664Z,20.50
2022-08-26T01:02:21.647Z,20.45
2022-08-26T01:04:54.239Z,20.43
2022-08-26T01:07:27.549Z,20.42
2022-08-26T01:09:59.890Z,20.38
2022-08-26T01:12:30.265Z,20.34
2022-08-26T01:14:58.305Z,20.28
2022-08-26T01:17:26.660Z,20.28
2022-08-26T01:20:02.524Z,20.21
2022-08-26T01:22:40.906Z,20.21
2022-08-26T01:25:09.355Z,20.20
2022-08-26T01:30:06.754Z,20.18
2022-08-26T01:32:36.273Z,20.13
2022-08-26T01:37:39.007Z,20.06
2022-08-26T01:40:17.777Z,20.00
2022-08-26T01:42:46.754Z,19.93
2022-08-26T01:45:18.427Z,19.88
2022-08-26T01:47:49.728Z,19.90
2022-08-26T01:50:30.200Z,19.85
2022-08-26T01:53:01.632Z,19.86
2022-08-26T01:55:33.288Z,19.82
2022-08-26T01:58:05.549Z,19.79
2022-08-26T02:00:34.963Z,19.73
2022-08-26T02:03:17.802Z,19.77
2022-08-26T02:05:48.924Z,19.75
2022-08-26T02:08:25.321Z,19.74
2022-08-26T02:10:55.253Z,19.70
2022-08-26T02:13:25.789Z,19.73
2022-08-26T02:15:55.299Z,19.75
2022-08-26T02:18:23.704Z,19.76
2022-08-26T02:23:24.424Z,19.57
2022-08-26T02:28:34.264Z,19.48
2022-08-26T02:31:02.579Z,19.54
2022-08-26T02:35:59.231Z,19.52
2022-08-26T02:38:27.787Z,19.35
2022-08-26T02:40:57.004Z,19.39
2022-08-26T02:43:31.282Z,19.34
2022-08-26T02:48:31.230Z,19.40
2022-08-26T02:51:01.794Z,19.32
2022-08-26T02:53:31.830Z,19.34
2022-08-26T02:56:05.211Z,19.42
2022-08-26T03:01:01.701Z,19.40
2022-08-26T03:03:33.060Z,19.37
2022-08-26T03:06:01.047Z,19.40
2022-08-26T03:08:28.881Z,19.36
2022-08-26T03:10:56.699Z,19.35
2022-08-26T03:15:53.820Z,19.41
2022-08-26T03:20:49.602Z,19.39
2022-08-26T03:23:17.450Z,19.47
2022-08-26T03:25:50.351Z,19.44
2022-08-26T03:28:19.291Z,19.34
2022-08-26T03:30:48.102Z,19.33
2022-08-26T03:33:16.996Z,19.24
2022-08-26T03:38:15.856Z,19.17
2022-08-26T03:40:44.603Z,19.15
2022-08-26T03:43:15.971Z,19.13
2022-08-26T03:45:44.271Z,19.15
2022-08-26T03:48:15.183Z,19.18
2022-08-26T03:50:43.250Z,19.10
2022-08-26T03:53:13.168Z,19.08
2022-08-26T03:55:42.042Z,19.05
2022-08-26T03:58:11.593Z,19.02
2022-08-26T04:00:39.552Z,18.96
2022-08-26T04:03:09.990Z,18.95
2022-08-26T04:05:39.544Z,18.82
2022-08-26T04:08:07.868Z,18.80
2022-08-26T04:10:38.995Z,18.75
2022-08-26T04:13:07.246Z,18.80
2022-08-26T04:15:35.306Z,18.72
2022-08-26T04:18:03.108Z,18.74
2022-08-26T04:20:31.329Z,18.72
2022-08-26T04:23:00.536Z,18.73
2022-08-26T04:25:28.425Z,18.67
2022-08-26T04:27:56.255Z,18.66
2022-08-26T04:30:25.511Z,18.69
2022-08-26T04:32:53.433Z,18.69
2022-08-26T04:35:25.650Z,18.62
2022-08-26T04:37:54.188Z,18.64
2022-08-26T04:40:24.027Z,18.56
2022-08-26T04:42:53.672Z,18.55
2022-08-26T04:47:54.600Z,18.55
2022-08-26T04:50:23.680Z,18.48
2022-08-26T04:52:53.046Z,18.50
2022-08-26T04:55:20.868Z,18.53
2022-08-26T05:00:23.112Z,18.57
2022-08-26T05:02:51.522Z,18.68
2022-08-26T05:05:19.439Z,18.64
2022-08-26T05:10:16.494Z,18.78
2022-08-26T05:12:46.464Z,18.80
2022-08-26T05:17:43.752Z,18.82
2022-08-26T05:22:40.559Z,18.89
2022-08-26T05:25:09.173Z,18.91
2022-08-26T05:27:37.041Z,18.93
2022-08-26T05:30:06.562Z,19.01
2022-08-26T05:32:35.891Z,19.06
2022-08-26T05:35:04.098Z,19.09
2022-08-26T05:37:38.620Z,19.03
2022-08-26T05:40:07.359Z,19.07
2022-08-26T05:42:36.432Z,19.13
2022-08-26T05:47:32.627Z,19.47
2022-08-26T05:50:05.462Z,19.50
2022-08-26T05:52:33.563Z,19.70
2022-08-26T05:55:01.765Z,19.84
2022-08-26T05:57:30.205Z,19.92
2022-08-26T05:59:58.484Z,19.94
2022-08-26T06:02:26.442Z,20.03
2022-08-26T06:04:54.321Z,20.08
2022-08-26T06:10:32.509Z,19.99
2022-08-26T06:13:04.601Z,20.34
2022-08-26T06:18:15.593Z,20.63
2022-08-26T06:20:57.164Z,20.92
2022-08-26T06:26:16.429Z,20.98
2022-08-26T06:28:45.431Z,21.21
2022-08-26T06:31:14.135Z,21.40
2022-08-26T06:33:42.168Z,21.46
2022-08-26T06:36:10.239Z,21.29
2022-08-26T06:38:39.643Z,21.41
2022-08-26T06:41:12.020Z,21.40
2022-08-26T06:43:39.884Z,21.66
2022-08-26T06:46:11.687Z,21.83
2022-08-26T06:48:40.192Z,21.89
2022-08-26T06:51:11.254Z,22.08
2022-08-26T06:53:41.914Z,22.39
2022-08-26T06:56:11.972Z,22.50
2022-08-26T06:58:40.866Z,22.50
2022-08-26T07:01:16.927Z,22.82
2022-08-26T07:03:46.715Z,23.02
2022-08-26T07:06:15.062Z,23.11
2022-08-26T07:08:45.937Z,23.32
2022-08-26T07:11:15.376Z,23.45
2022-08-26T07:13:43.368Z,23.77
2022-08-26T07:16:14.584Z,23.89
2022-08-26T07:18:44.797Z,24.01
2022-08-26T07:23:43.371Z,24.45
2022-08-26T07:26:16.289Z,24.01
2022-08-26T07:28:44.518Z,23.72
2022-08-26T07:31:14.775Z,24.16
2022-08-26T07:33:43.738Z,23.95
2022-08-26T07:36:13.134Z,23.90
2022-08-26T07:38:42.449Z,24.00
2022-08-26T07:41:13.186Z,24.00
2022-08-26T07:43:41.630Z,24.36
2022-08-26T07:46:13.270Z,24.01
2022-08-26T07:48:45.930Z,24.06
2022-08-26T07:51:14.432Z,24.24
2022-08-26T07:53:42.460Z,24.30
2022-08-26T07:56:10.321Z,24.13
2022-08-26T07:58:40.752Z,24.32
2022-08-26T08:01:10.735Z,24.52
2022-08-26T08:03:38.970Z,24.38
2022-08-26T08:06:07.339Z,24.57
2022-08-26T08:08:37.737Z,24.59
2022-08-26T08:11:05.933Z,24.68
2022-08-26T08:13:33.790Z,24.82
2022-08-26T08:16:03.238Z,24.93
2022-08-26T08:18:31.119Z,25.41
2022-08-26T08:21:21.448Z,26.06
2022-08-26T08:23:49.716Z,26.57
2022-08-26T08:26:17.542Z,26.52
2022-08-26T08:28:47.986Z,26.54
2022-08-26T08:31:52.121Z,26.36
2022-08-26T08:34:10.123Z,25.83
2022-08-26T08:36:37.905Z,26.11
2022-08-26T08:39:06.622Z,26.04
2022-08-26T08:41:53.309Z,26.42
2022-08-26T08:44:31.221Z,26.94
2022-08-26T08:47:06.111Z,26.85
2022-08-26T08:49:35.372Z,27.72
2022-08-26T08:52:11.406Z,28.75
2022-08-26T08:57:13.067Z,29.04
2022-08-26T08:59:53.347Z,28.55
2022-08-26T09:02:31.694Z,28.68
2022-08-26T09:05:07.762Z,29.64
2022-08-26T12:49:39.561Z,30.52
2022-08-26T12:54:56.965Z,29.50
2022-08-26T12:57:29.677Z,29.24
2022-08-26T13:00:28.391Z,29.10
2022-08-26T13:05:27.776Z,28.08
2022-08-26T13:08:16.365Z,28.03
2022-08-26T13:10:46.776Z,27.63
2022-08-26T13:13:15.962Z,26.24
2022-08-26T13:18:12.301Z,23.62
2022-08-26T13:20:44.089Z,23.06
2022-08-26T13:28:08.165Z,22.33
2022-08-26T13:30:37.645Z,22.18
2022-08-26T13:33:06.067Z,22.07
2022-08-26T13:35:34.316Z,22.15
2022-08-26T13:38:02.159Z,22.33
2022-08-26T13:40:34.381Z,22.29
2022-08-26T13:43:02.498Z,22.12
2022-08-26T13:45:30.434Z,22.25
2022-08-26T13:48:00.451Z,22.38
2022-08-26T13:50:28.308Z,22.30
2022-08-26T13:52:56.131Z,22.25
2022-08-26T13:57:52.270Z,22.19
2022-08-26T14:00:20.496Z,22.32
2022-08-26T14:02:48.486Z,22.28
2022-08-26T14:05:17.945Z,22.43
2022-08-26T14:07:45.997Z,22.79
2022-08-26T14:10:13.916Z,22.43
2022-08-26T14:12:42.398Z,22.42
2022-08-26T14:15:11.258Z,22.56
2022-08-26T14:17:40.194Z,22.80
2022-08-26T14:20:12.997Z,22.78
2022-08-26T14:23:03.606Z,22.93
2022-08-26T14:25:34.580Z,23.27
2022-08-26T14:28:02.636Z,23.48
2022-08-26T14:30:30.504Z,23.78
2022-08-26T14:33:00.358Z,23.79
2022-08-26T14:35:29.767Z,24.46
2022-08-26T14:37:59.145Z,24.65
2022-08-26T14:40:31.455Z,25.15
2022-08-26T14:43:02.565Z,25.71
2022-08-26T14:45:43.958Z,25.39
2022-08-26T14:48:12.028Z,26.12
2022-08-26T14:50:40.839Z,26.37
2022-08-26T14:53:27.821Z,27.16
2022-08-26T14:55:55.708Z,26.92
2022-08-26T14:58:23.649Z,27.21
2022-08-26T15:00:51.736Z,26.90
2022-08-26T15:03:19.601Z,26.88
2022-08-26T15:05:48.334Z,27.17
2022-08-26T15:08:18.476Z,26.80
2022-08-26T15:10:46.311Z,27.49
2022-08-26T15:13:14.136Z,27.07
2022-08-26T15:18:10.445Z,27.08
2022-08-26T15:20:38.630Z,27.51
2022-08-26T15:23:07.616Z,28.63
2022-08-26T15:28:06.351Z,29.04
2022-08-26T15:33:02.887Z,31.55
2022-08-26T15:45:46.038Z,32.81
2022-08-26T15:53:19.629Z,31.83
2022-08-26T16:03:13.906Z,29.33
2022-08-26T16:05:44.021Z,29.01
2022-08-26T16:08:12.950Z,28.69
2022-08-26T16:10:47.894Z,29.42
2022-08-26T16:13:21.343Z,29.15
2022-08-26T16:18:20.355Z,28.60
2022-08-26T16:21:08.818Z,28.39
2022-08-26T16:23:44.929Z,28.88
2022-08-26T16:26:15.623Z,28.90
2022-08-26T16:28:45.051Z,28.58
2022-08-26T16:31:13.174Z,28.87
2022-08-26T16:33:41.180Z,28.48
2022-08-26T16:36:10.015Z,28.37
2022-08-26T16:38:39.691Z,28.28
2022-08-26T16:43:37.428Z,27.42
2022-08-26T16:46:08.597Z,27.22
2022-08-26T16:48:36.593Z,27.27
2022-08-26T16:51:04.660Z,27.50
2022-08-26T16:53:33.722Z,27.13
2022-08-26T16:56:01.612Z,26.87
2022-08-26T16:58:29.573Z,26.67
2022-08-26T17:00:57.943Z,26.64
2022-08-26T17:03:27.582Z,26.48
2022-08-26T17:05:55.796Z,26.53
2022-08-26T17:08:27.727Z,26.48
2022-08-26T17:10:56.751Z,26.16
2022-08-26T17:13:35.417Z,26.36
2022-08-26T17:16:06.332Z,26.40
2022-08-26T17:18:36.014Z,26.03
2022-08-26T17:21:06.690Z,25.86
2022-08-26T17:23:35.039Z,25.89
2022-08-26T17:28:30.996Z,25.51
2022-08-26T17:30:59.391Z,25.30
2022-08-26T17:33:28.139Z,25.31
2022-08-26T17:35:57.615Z,25.37
2022-08-26T17:38:27.508Z,25.37
2022-08-26T17:40:55.503Z,25.29
2022-08-26T17:43:23.295Z,25.14
2022-08-26T17:48:19.143Z,25.12
2022-08-26T17:50:49.589Z,25.09
2022-08-26T17:55:48.046Z,25.07
2022-08-26T17:58:16.334Z,24.94
2022-08-26T18:00:45.217Z,24.98
2022-08-26T18:03:13.149Z,24.93
2022-08-26T18:05:41.337Z,24.86
2022-08-26T18:10:38.815Z,24.77
2022-08-26T18:13:06.676Z,24.66
2022-08-26T18:15:35.008Z,24.46
2022-08-26T18:18:02.944Z,24.42
2022-08-26T18:20:30.955Z,24.30
2022-08-26T18:22:58.865Z,23.90
2022-08-26T18:25:27.128Z,23.49
2022-08-26T18:27:56.324Z,23.07
2022-08-26T18:30:24.734Z,22.81
2022-08-26T18:32:53.306Z,22.65
2022-08-26T18:35:22.028Z,22.51
2022-08-26T18:37:49.955Z,22.45
2022-08-26T18:40:17.865Z,22.16
2022-08-26T18:42:45.743Z,22.12
2022-08-26T18:45:18.815Z,22.04
2022-08-26T18:47:46.628Z,21.93
2022-08-26T18:50:15.752Z,21.82
2022-08-26T18:52:43.773Z,21.47
2022-08-26T18:55:11.948Z,21.39
2022-08-26T18:57:39.797Z,21.57
2022-08-26T19:00:09.878Z,21.31
2022-08-26T19:02:39.229Z,21.20
2022-08-26T19:05:08.407Z,21.31
2022-08-26T19:07:39.607Z,21.13
2022-08-26T19:10:08.519Z,21.03
2022-08-26T19:12:36.416Z,21.02
2022-08-26T19:15:05.235Z,20.93
2022-08-26T19:20:03.169Z,20.87
2022-08-26T19:22:31.041Z,20.71
2022-08-26T19:24:58.898Z,20.83
2022-08-26T19:32:25.372Z,20.79
2022-08-26T19:34:53.269Z,20.73
2022-08-26T19:37:23.130Z,20.75
2022-08-26T19:39:51.411Z,20.77
2022-08-26T19:42:19.321Z,20.73
2022-08-26T19:45:04.802Z,20.73
2022-08-26T19:47:32.791Z,20.73
2022-08-26T19:50:01.043Z,20.68
2022-08-26T19:52:31.287Z,20.66
2022-08-26T19:59:55.343Z,20.68
2022-08-26T20:02:23.254Z,20.60
2022-08-26T20:12:18.714Z,20.51
2022-08-26T20:14:46.564Z,20.47
2022-08-26T20:17:16.131Z,20.48
2022-08-26T20:20:01.587Z,20.51
2022-08-26T20:22:29.551Z,20.41
2022-08-26T20:24:58.997Z,20.40
2022-08-26T20:27:37.883Z,20.49
2022-08-26T20:30:08.419Z,20.50
2022-08-26T20:35:05.953Z,20.32
2022-08-26T20:37:34.608Z,20.38
2022-08-26T20:40:04.956Z,20.33
2022-08-26T20:45:00.920Z,20.17
2022-08-26T20:47:29.206Z,20.20
2022-08-26T20:49:57.215Z,20.22
2022-08-26T20:52:25.116Z,20.21
2022-08-26T20:54:52.946Z,20.18
2022-08-26T20:59:51.450Z,20.20
2022-08-26T21:04:47.455Z,20.21
2022-08-26T21:07:15.396Z,20.20
2022-08-26T21:09:45.605Z,20.21
2022-08-26T21:12:13.623Z,20.19
2022-08-26T21:14:46.639Z,20.16
2022-08-26T21:19:44.962Z,20.20
2022-08-26T21:27:08.951Z,20.09
2022-08-26T21:29:37.721Z,20.08
2022-08-26T21:34:35.614Z,20.09
2022-08-26T21:39:31.453Z,20.04
2022-08-26T21:41:59.305Z,20.05
2022-08-26T21:46:56.166Z,20.03
2022-08-26T21:49:26.099Z,20.03
2022-08-26T21:51:55.233Z,20.09
2022-08-26T21:54:23.670Z,20.09
2022-08-26T21:56:51.692Z,20.08
2022-08-26T21:59:19.896Z,20.10
2022-08-26T22:01:48.517Z,20.00
2022-08-26T22:04:17.198Z,20.00
2022-08-26T22:06:48.942Z,20.05
2022-08-26T22:09:18.900Z,20.07
2022-08-26T22:11:47.475Z,20.01
2022-08-26T22:14:16.670Z,19.99
2022-08-26T22:16:50.603Z,20.08
2022-08-26T22:24:19.711Z,20.00
2022-08-26T22:26:48.350Z,19.99
2022-08-26T22:29:16.494Z,20.06
2022-08-26T22:31:44.418Z,19.98
2022-08-26T22:34:15.690Z,19.94
2022-08-26T22:36:46.191Z,19.99
2022-08-26T22:39:17.265Z,19.96
2022-08-26T22:41:46.285Z,20.04
2022-08-26T22:44:14.096Z,19.96
2022-08-26T22:46:43.103Z,19.94
2022-08-26T22:51:44.179Z,20.00
2022-08-26T22:56:42.279Z,19.87
2022-08-26T22:59:10.167Z,19.84
2022-08-26T23:01:39.542Z,19.85
2022-08-26T23:06:38.226Z,19.84
2022-08-26T23:11:35.548Z,19.74
2022-08-26T23:14:06.653Z,19.80
2022-08-26T23:16:39.383Z,19.84
2022-08-26T23:21:36.156Z,19.93
2022-08-26T23:24:04.539Z,19.94
2022-08-26T23:26:32.777Z,19.92
2022-08-26T23:31:30.365Z,20.04
2022-08-26T23:39:12.891Z,20.10
2022-08-26T23:41:40.746Z,20.07
2022-08-26T23:44:08.615Z,19.97
2022-08-26T23:46:37.817Z,20.01
2022-08-26T23:49:06.067Z,20.00
